Portada
METAR-TAF:

METAR-TAF

Aeropuertos :

Cazaux, Francia

latitud: 44-32N, longitud: 001-08W, altitud: 25 m

Observación

El informe se hizo hace 39 minutos, a las 03:00 UTC
Viento 3 kt del norte
Temperatura 10°C
Humedad 100%
Presión 1014 hPa
Visibilidad: 0400 m
niebla

METAR: LFBC 160300Z AUTO 36003KT 0550 0400 R24/0750N FG VV/// 10/10 Q1014

Hora: 05:39 (03:39 UTC)

Pronóstico

El informe se hizo hace 7 horas y 39 minutos, a las 20:00 UTC
Pronóstico válido del 15 a las 21 UTC al 16 a las 21 UTC
Viento 5 kt del norte-noroeste
Visibilidad 10 km o más
Escasas nubes a una altura de 3500 ft
Evolucionando progresivamente
del 16 a las 01 UTC al 16 a las 03 UTC
Visibilidad: 0500 m
niebla
Evolucionando progresivamente
del 16 a las 08 UTC al 16 a las 10 UTC
Visibilidad: 6000 m
Nubes dispersas a una altura de 600 ft

TAF: LFBC 152000Z 1521/1621 34005KT 9999 FEW035 BECMG 1601/1603 0500 FG VV/// BECMG 1608/1610 6000 NSW SCT006

Observaciones y pronósticos meteorológicos de más de 4000 aeropuertos (mensajes METAR y TAF).

Los puntos amarillos y rojos representan las estaciones disponibles.

Ponga el ratón en el punto deseado para ver el nombre de la estación.

Haga clic para ver las observaciones y los pronósticos meteorológicos.

Para cambiar el mapa : haga clic en los botones verdes con una cruz de color negro para hacer un zoom, en el botón verde con un guión para alejar o en las flechas verdes para mapas adyacentes.


METAR-TAF: